DIAP/ABJ METAR and TAF weather

Enter ICAO airport designator
Station Type Date Time Source
DIAP METAR 2019/10/18 06:00 UTC NOAA

DIAP 180600Z 26005KT 9999 TS FEW012 FEW020CB BKN030 26/25 Q1012 TEMPO 4000 TSRA


Station Type Date Time Source
DIAP Decoded METAR 2019/10/18 06:00 UTC NOAA

Abidjan, Cote d'Ivoire (DIAP) 05-15N 003-56W 8M
Oct 18, 2019 - 02:00 AM EDT / 2019.10.18 0600 UTC
Wind: from the W (260 degrees) at 6 MPH (5 KT):0
Visibility: greater than 7 mile(s):0
Sky conditions: mostly cloudy
Weather: thunder; Cumulonimbus clouds observed
Temperature: 78 F (26 C)
Dew Point: 77 F (25 C)
Relative Humidity: 94%
Pressure (altimeter): 29.88 in. Hg (1012 hPa)
ob: DIAP 180600Z 26005KT 9999 TS FEW012 FEW020CB BKN030 26/25 Q1012 TEMPO 4000 TSRA
cycle: 6

Station Type Date Time Source
DIAP TAF 2019/10/18 06:36 UTC NOAA

TAF TAF DIAP 180529Z 1806/1912 24010KT 9999 SCT012 BKN040
TEMPO 1806/1811 4000 TSRA BKN010 FEW020CB BKN030 PROB30
TEMPO 1816/1821 TS BKN012 FEW020CB PROB30
TEMPO 1821/1903 4000 RA BKN010 BKN030 PROB30
TEMPO 1903/1907 4000 TSRA BKN010 FEW020CB BKN030 PROB40
TEMPO 1907/1912 3000 TSRA BKN010 FEW020CB BKN030

Example: see airport list